createdAt,value
2018-11-21T00:02:19.160Z,78.30
2018-11-21T00:04:47.888Z,77.70
2018-11-21T00:07:16.488Z,78.20
2018-11-21T00:09:44.971Z,78.40
2018-11-21T00:12:13.486Z,78.30
2018-11-21T00:14:42.042Z,78.30
2018-11-21T00:17:10.721Z,78.30
2018-11-21T00:19:39.193Z,78.20
2018-11-21T00:22:07.792Z,78.30
2018-11-21T00:24:36.319Z,79.40
2018-11-21T00:27:04.937Z,78.20
2018-11-21T00:29:33.406Z,78.40
2018-11-21T00:32:03.142Z,78.70
2018-11-21T00:34:32.766Z,79.10
2018-11-21T00:37:02.679Z,78.60
2018-11-21T00:39:31.046Z,77.80
2018-11-21T00:41:59.998Z,78.20
2018-11-21T00:44:28.485Z,78.20
2018-11-21T00:46:57.124Z,78.20
2018-11-21T00:49:25.654Z,78.00
2018-11-21T00:51:54.163Z,77.70
2018-11-21T00:54:23.225Z,78.30
2018-11-21T00:56:51.634Z,78.40
2018-11-21T00:59:20.179Z,78.30
2018-11-21T01:01:48.703Z,78.10
2018-11-21T01:04:17.393Z,78.30
2018-11-21T01:06:46.306Z,78.30
2018-11-21T01:09:14.766Z,78.30
2018-11-21T01:11:43.332Z,78.40
2018-11-21T01:14:11.930Z,78.30
2018-11-21T01:16:49.450Z,78.50
2018-11-21T01:19:21.603Z,79.50
2018-11-21T01:21:50.085Z,79.30
2018-11-21T01:24:18.719Z,79.00
2018-11-21T01:26:47.303Z,78.30
2018-11-21T01:29:15.881Z,78.30
2018-11-21T01:31:44.960Z,78.40
2018-11-21T01:34:13.837Z,78.30
2018-11-21T01:36:42.498Z,78.30
2018-11-21T01:39:11.569Z,78.00
2018-11-21T01:41:40.651Z,77.20
2018-11-21T01:44:10.523Z,77.50
2018-11-21T01:46:39.048Z,77.70
2018-11-21T01:49:08.500Z,78.10
2018-11-21T01:51:37.000Z,78.30
2018-11-21T01:54:05.878Z,78.30
2018-11-21T01:56:34.531Z,78.40
2018-11-21T01:59:03.214Z,77.70
2018-11-21T02:01:31.917Z,77.70
2018-11-21T02:04:00.377Z,77.20
2018-11-21T02:06:28.867Z,78.10
2018-11-21T02:08:57.522Z,77.90
2018-11-21T02:11:26.076Z,77.70
2018-11-21T02:13:54.663Z,77.50
2018-11-21T02:16:23.363Z,76.90
2018-11-21T02:18:51.726Z,76.60
2018-11-21T02:21:20.338Z,75.60
2018-11-21T02:23:48.838Z,75.80
2018-11-21T02:26:17.375Z,76.00
2018-11-21T02:28:45.900Z,75.90
2018-11-21T02:31:15.322Z,75.50
2018-11-21T02:33:43.712Z,75.50
2018-11-21T02:36:14.588Z,75.70
2018-11-21T02:38:43.202Z,76.30
2018-11-21T02:41:12.785Z,76.00
2018-11-21T02:43:41.236Z,75.80
2018-11-21T02:46:09.820Z,75.80
2018-11-21T02:48:38.389Z,76.00
2018-11-21T02:51:07.149Z,76.30
2018-11-21T02:53:35.887Z,76.40
2018-11-21T02:56:04.322Z,76.00
2018-11-21T02:58:32.960Z,75.70
2018-11-21T03:01:01.347Z,75.80
2018-11-21T03:03:29.875Z,75.30
2018-11-21T03:05:58.373Z,75.40
2018-11-21T03:08:26.939Z,75.30
2018-11-21T03:10:55.384Z,75.40
2018-11-21T03:13:28.358Z,75.40
2018-11-21T03:15:52.563Z,75.50
2018-11-21T03:18:21.035Z,75.20
2018-11-21T03:20:49.620Z,75.30
2018-11-21T03:23:18.117Z,75.30
2018-11-21T03:25:46.553Z,74.70
2018-11-21T03:28:15.447Z,74.50
2018-11-21T03:30:44.451Z,75.20
2018-11-21T03:33:12.995Z,75.60
2018-11-21T03:35:41.580Z,75.70
2018-11-21T03:38:10.350Z,75.40
2018-11-21T03:40:38.914Z,74.80
2018-11-21T03:43:07.467Z,75.00
2018-11-21T03:45:36.098Z,74.40
2018-11-21T03:48:04.969Z,74.50
2018-11-21T03:50:34.037Z,74.40
2018-11-21T03:53:02.533Z,74.20
2018-11-21T03:55:31.094Z,74.30
2018-11-21T03:57:59.696Z,74.10
2018-11-21T04:00:28.227Z,74.30
2018-11-21T04:02:56.687Z,74.40
2018-11-21T04:05:25.261Z,75.10
2018-11-21T04:07:53.810Z,75.70
2018-11-21T04:10:22.425Z,75.90
2018-11-21T04:12:50.909Z,75.20
2018-11-21T04:15:19.645Z,74.60
2018-11-21T04:17:48.111Z,74.40
2018-11-21T04:20:16.673Z,74.50
2018-11-21T04:22:45.148Z,74.90
2018-11-21T04:25:13.642Z,74.90
2018-11-21T04:27:42.252Z,75.00
2018-11-21T04:30:13.054Z,75.80
2018-11-21T04:32:41.836Z,75.60
2018-11-21T04:35:10.292Z,75.70
2018-11-21T04:37:38.967Z,76.10
2018-11-21T04:40:08.112Z,76.00
2018-11-21T04:42:36.911Z,76.10
2018-11-21T04:45:06.905Z,76.50
2018-11-21T04:47:35.720Z,76.00
2018-11-21T04:50:04.507Z,76.50
2018-11-21T04:52:33.178Z,76.70
2018-11-21T04:55:01.685Z,77.30
2018-11-21T04:57:30.207Z,77.10
2018-11-21T04:59:58.800Z,76.70
2018-11-21T05:02:27.302Z,76.30
2018-11-21T05:04:56.152Z,77.10
2018-11-21T05:07:25.814Z,77.80
2018-11-21T05:09:54.447Z,77.10
2018-11-21T05:12:22.965Z,77.30
2018-11-21T05:14:51.327Z,77.70
2018-11-21T05:17:19.821Z,77.10
2018-11-21T05:19:48.374Z,77.40
2018-11-21T05:22:18.953Z,77.20
2018-11-21T05:24:47.895Z,77.00
2018-11-21T05:27:16.515Z,77.60
2018-11-21T05:29:45.131Z,77.00
2018-11-21T05:32:13.890Z,76.90
2018-11-21T05:34:42.281Z,77.60
2018-11-21T05:37:10.866Z,77.60
2018-11-21T05:39:40.251Z,77.80
2018-11-21T05:42:14.932Z,77.80
2018-11-21T05:44:45.561Z,77.40
2018-11-21T05:47:14.188Z,77.70
2018-11-21T05:49:42.779Z,78.30
2018-11-21T05:52:11.471Z,78.70
2018-11-21T05:54:39.902Z,78.00
2018-11-21T05:57:08.401Z,77.70
2018-11-21T05:59:36.852Z,78.00
2018-11-21T06:02:05.424Z,78.30
2018-11-21T06:04:33.971Z,78.40
2018-11-21T06:07:02.622Z,78.30
2018-11-21T06:09:31.139Z,78.40
2018-11-21T06:12:04.236Z,77.90
2018-11-21T06:14:28.385Z,78.50
2018-11-21T06:16:57.002Z,78.30
2018-11-21T06:19:25.576Z,78.30
2018-11-21T06:21:54.065Z,78.30
2018-11-21T06:24:22.602Z,78.30
2018-11-21T06:26:54.786Z,78.30
2018-11-21T06:29:23.231Z,78.30
2018-11-21T06:31:52.323Z,78.30
2018-11-21T06:34:20.886Z,79.10
2018-11-21T06:36:49.840Z,77.90
2018-11-21T06:39:19.117Z,78.30
2018-11-21T06:41:47.928Z,78.40
2018-11-21T06:44:16.502Z,79.10
2018-11-21T06:46:45.211Z,78.50
2018-11-21T06:49:14.204Z,78.60
2018-11-21T06:51:42.634Z,78.30
2018-11-21T06:54:12.993Z,78.90
2018-11-21T06:56:41.664Z,78.80
2018-11-21T06:59:10.278Z,78.30
2018-11-21T07:01:38.811Z,78.40
2018-11-21T07:04:07.387Z,78.40
2018-11-21T07:06:35.924Z,78.40
2018-11-21T07:09:07.797Z,78.40
2018-11-21T07:11:36.470Z,78.40
2018-11-21T07:14:07.218Z,78.40
2018-11-21T07:16:35.465Z,78.40
2018-11-21T07:19:03.962Z,78.50
2018-11-21T07:21:32.542Z,78.40
2018-11-21T07:24:02.049Z,77.20
2018-11-21T07:26:30.579Z,76.30
2018-11-21T07:28:59.162Z,75.50
2018-11-21T07:31:28.047Z,74.30
2018-11-21T07:33:56.651Z,74.10
2018-11-21T07:36:25.165Z,73.10
2018-11-21T07:38:54.414Z,72.60
2018-11-21T07:41:23.044Z,72.20
2018-11-21T07:43:51.518Z,71.30
2018-11-21T07:46:20.444Z,70.80
2018-11-21T07:48:51.405Z,70.10
2018-11-21T07:51:20.211Z,68.10
2018-11-21T07:53:48.683Z,67.50
2018-11-21T07:56:51.088Z,67.20
2018-11-21T07:59:19.662Z,67.00
2018-11-21T08:01:56.279Z,66.70
2018-11-21T08:04:33.138Z,65.60
2018-11-21T08:07:08.207Z,63.40
2018-11-21T08:09:51.521Z,64.50
2018-11-21T08:12:31.290Z,63.50
2018-11-21T08:15:19.337Z,61.20
2018-11-21T08:18:00.326Z,61.20
2018-11-21T08:20:43.219Z,58.60
2018-11-21T08:23:26.059Z,59.60
2018-11-21T08:26:01.196Z,58.40
2018-11-21T08:28:30.990Z,60.20
2018-11-21T08:30:59.955Z,57.70
2018-11-21T08:33:33.797Z,57.50
2018-11-21T08:35:57.825Z,57.60
2018-11-21T08:38:26.448Z,56.80
2018-11-21T08:40:54.995Z,56.50
2018-11-21T08:43:23.647Z,56.40
2018-11-21T08:45:52.183Z,56.20
2018-11-21T08:48:21.541Z,54.00
2018-11-21T08:50:49.979Z,53.70
2018-11-21T08:53:18.526Z,54.90
2018-11-21T08:55:47.214Z,55.00
2018-11-21T08:58:15.740Z,56.30
2018-11-21T09:00:44.495Z,54.60
2018-11-21T09:03:13.309Z,54.40
2018-11-21T09:05:42.421Z,55.40
2018-11-21T09:08:10.995Z,55.00
2018-11-21T09:10:39.511Z,55.50
2018-11-21T09:13:08.069Z,55.20
2018-11-21T09:15:36.617Z,55.90
2018-11-21T09:18:05.342Z,55.30
2018-11-21T09:20:34.541Z,56.40
2018-11-21T09:23:03.374Z,56.80
2018-11-21T09:25:32.389Z,55.60
2018-11-21T09:28:00.937Z,55.80
2018-11-21T09:30:30.093Z,54.60
2018-11-21T09:32:59.400Z,54.20
2018-11-21T09:35:27.876Z,54.30
2018-11-21T09:37:56.642Z,52.50
2018-11-21T09:40:25.356Z,53.10
2018-11-21T09:42:55.259Z,53.30
2018-11-21T09:45:24.579Z,54.60
2018-11-21T09:47:53.192Z,52.50
2018-11-21T09:50:23.983Z,52.90
2018-11-21T09:52:52.647Z,55.30
2018-11-21T09:55:21.184Z,54.40
2018-11-21T09:57:49.749Z,53.90
2018-11-21T10:00:48.411Z,54.00
2018-11-21T10:03:20.188Z,52.60
2018-11-21T10:05:51.801Z,52.10
2018-11-21T10:08:37.759Z,51.30
2018-11-21T10:11:06.857Z,52.10
2018-11-21T10:13:35.531Z,52.10
2018-11-21T10:16:05.333Z,53.20
2018-11-21T10:18:34.903Z,52.70
2018-11-21T10:21:03.795Z,52.20
2018-11-21T10:23:32.652Z,53.70
2018-11-21T10:26:01.237Z,53.50
2018-11-21T10:28:29.930Z,53.40
2018-11-21T10:30:59.181Z,52.30
2018-11-21T10:33:27.819Z,53.20
2018-11-21T10:35:56.270Z,54.90
2018-11-21T10:38:24.767Z,54.10
2018-11-21T10:40:53.242Z,55.30
2018-11-21T10:43:21.785Z,54.40
2018-11-21T10:45:50.595Z,54.40
2018-11-21T10:48:19.118Z,55.00
2018-11-21T10:50:47.768Z,54.40
2018-11-21T10:53:16.458Z,54.20
2018-11-21T10:55:45.009Z,54.10
2018-11-21T10:58:13.490Z,53.80
2018-11-21T11:01:00.177Z,53.90
2018-11-21T11:03:42.148Z,52.10
2018-11-21T11:06:25.067Z,54.10
2018-11-21T11:09:12.610Z,52.50
2018-11-21T11:11:55.588Z,52.40
2018-11-21T11:14:34.944Z,52.30
2018-11-21T11:17:18.900Z,52.80
2018-11-21T11:20:01.692Z,52.20
2018-11-21T11:22:44.497Z,53.00
2018-11-21T11:25:27.196Z,52.40
2018-11-21T11:28:10.299Z,51.50
2018-11-21T11:30:48.909Z,52.40
2018-11-21T11:33:39.684Z,52.10
2018-11-21T11:36:22.429Z,51.20
2018-11-21T11:39:05.595Z,52.40
2018-11-21T11:41:48.317Z,51.70
2018-11-21T11:44:31.050Z,50.90
2018-11-21T11:47:18.489Z,52.10
2018-11-21T11:50:01.271Z,52.30
2018-11-21T11:52:44.497Z,51.50
2018-11-21T11:55:24.766Z,52.30
2018-11-21T11:58:08.193Z,51.90
2018-11-21T12:00:57.499Z,51.20
2018-11-21T12:03:43.926Z,52.40
2018-11-21T12:06:27.077Z,52.10
2018-11-21T12:09:07.890Z,51.40
2018-11-21T12:11:50.037Z,49.70
2018-11-21T12:14:32.986Z,51.80
2018-11-21T12:17:19.493Z,50.40
2018-11-21T12:20:09.436Z,49.50
2018-11-21T12:22:52.724Z,51.20
2018-11-21T12:25:40.369Z,51.60
2018-11-21T12:28:28.267Z,51.40
2018-11-21T12:31:10.497Z,52.40
2018-11-21T12:33:49.926Z,50.50
2018-11-21T12:36:37.706Z,52.40
2018-11-21T12:39:23.486Z,51.10
2018-11-21T12:42:06.684Z,52.00
2018-11-21T12:44:54.265Z,51.50
2018-11-21T12:47:33.608Z,52.20
2018-11-21T12:50:16.580Z,52.30
2018-11-21T12:53:02.167Z,52.20
2018-11-21T12:55:50.025Z,52.20
2018-11-21T12:58:30.001Z,52.20
2018-11-21T13:01:17.551Z,52.10
2018-11-21T13:04:00.223Z,51.20
2018-11-21T13:06:35.038Z,52.30
2018-11-21T13:09:25.210Z,51.70
2018-11-21T13:12:14.022Z,52.20
2018-11-21T13:14:49.089Z,52.50
2018-11-21T13:17:29.187Z,53.10
2018-11-21T13:20:19.892Z,52.20
2018-11-21T13:23:02.573Z,52.30
2018-11-21T13:25:50.301Z,52.20
2018-11-21T13:28:32.902Z,53.10
2018-11-21T13:31:15.831Z,54.00
2018-11-21T13:33:58.759Z,52.90
2018-11-21T13:36:41.501Z,53.50
2018-11-21T13:39:26.441Z,54.30
2018-11-21T13:42:08.283Z,54.10
2018-11-21T13:44:46.312Z,54.20
2018-11-21T13:47:29.059Z,55.10
2018-11-21T13:50:12.997Z,54.80
2018-11-21T13:52:55.723Z,53.40
2018-11-21T13:55:24.220Z,55.00
2018-11-21T13:57:52.822Z,54.90
2018-11-21T14:00:21.390Z,55.00
2018-11-21T14:02:49.902Z,54.80
2018-11-21T14:05:18.854Z,55.30
2018-11-21T14:07:47.948Z,55.00
2018-11-21T14:10:16.528Z,55.30
2018-11-21T14:12:46.875Z,55.10
2018-11-21T14:15:15.627Z,55.80
2018-11-21T14:17:44.304Z,56.50
2018-11-21T14:20:13.922Z,56.80
2018-11-21T14:22:42.695Z,56.80
2018-11-21T14:25:12.068Z,57.00
2018-11-21T14:27:40.989Z,57.20
2018-11-21T14:30:13.827Z,56.90
2018-11-21T14:32:43.369Z,55.40
2018-11-21T14:35:13.542Z,55.20
2018-11-21T14:37:42.801Z,56.00
2018-11-21T14:40:14.144Z,55.30
2018-11-21T14:42:42.800Z,55.50
2018-11-21T14:45:18.746Z,55.80
2018-11-21T14:47:49.542Z,56.00
2018-11-21T14:50:22.048Z,56.30
2018-11-21T14:52:50.779Z,56.70
2018-11-21T14:55:19.359Z,57.00
2018-11-21T14:57:48.103Z,56.80
2018-11-21T15:00:18.480Z,56.60
2018-11-21T15:02:47.010Z,56.10
2018-11-21T15:05:16.153Z,55.60
2018-11-21T15:07:46.426Z,55.70
2018-11-21T15:10:15.460Z,56.00
2018-11-21T15:12:44.001Z,55.00
2018-11-21T15:15:15.569Z,55.30
2018-11-21T15:17:44.218Z,55.70
2018-11-21T15:20:16.315Z,56.20
2018-11-21T15:22:45.328Z,55.30
2018-11-21T15:25:16.587Z,55.70
2018-11-21T15:27:46.461Z,55.70
2018-11-21T15:30:18.286Z,56.10
2018-11-21T15:32:46.959Z,55.90
2018-11-21T15:35:15.439Z,56.60
2018-11-21T15:37:44.356Z,57.40
2018-11-21T15:40:15.930Z,57.90
2018-11-21T15:42:44.585Z,58.30
2018-11-21T15:45:16.653Z,58.50
2018-11-21T15:47:48.293Z,58.20
2018-11-21T15:50:17.813Z,58.90
2018-11-21T15:52:52.681Z,59.00
2018-11-21T15:55:16.275Z,59.50
2018-11-21T15:57:44.742Z,60.10
2018-11-21T16:00:15.345Z,60.30
2018-11-21T16:02:47.761Z,60.70
2018-11-21T16:05:17.898Z,60.70
2018-11-21T16:07:47.298Z,61.10
2018-11-21T16:10:18.880Z,61.30
2018-11-21T16:12:46.379Z,61.60
2018-11-21T16:15:18.281Z,63.20
2018-11-21T16:17:47.049Z,63.80
2018-11-21T16:20:16.686Z,64.60
2018-11-21T16:22:45.300Z,64.50
2018-11-21T16:25:15.833Z,64.30
2018-11-21T16:27:45.026Z,65.00
2018-11-21T16:30:16.063Z,66.30
2018-11-21T16:32:45.587Z,66.20
2018-11-21T16:35:14.442Z,66.20
2018-11-21T16:37:44.690Z,67.90
2018-11-21T16:40:17.103Z,67.60
2018-11-21T16:42:45.971Z,67.50
2018-11-21T16:45:27.772Z,67.40
2018-11-21T16:47:57.230Z,67.50
2018-11-21T16:50:25.954Z,67.70
2018-11-21T16:52:55.902Z,67.50
2018-11-21T16:55:26.078Z,67.80
2018-11-21T16:57:55.887Z,67.90
2018-11-21T17:00:26.309Z,68.20
2018-11-21T17:02:57.660Z,67.70
